sensor_id;sensor_type;location;lat;lon;timestamp;pressure;altitude;pressure_sealevel;temperature;humidity
69624;BME280;56843;52.020;5.670;2023-05-23T00:00:29;101682.13;;;18.87;59.32
69624;BME280;56843;52.020;5.670;2023-05-23T00:02:02;101676.63;;;18.83;59.49
69624;BME280;56843;52.020;5.670;2023-05-23T00:03:37;101677.72;;;18.79;59.50
69624;BME280;56843;52.020;5.670;2023-05-23T00:05:07;101669.94;;;18.77;59.70
69624;BME280;56843;52.020;5.670;2023-05-23T00:06:38;101675.34;;;18.77;59.93
69624;BME280;56843;52.020;5.670;2023-05-23T00:08:08;101682.69;;;18.77;59.49
69624;BME280;56843;52.020;5.670;2023-05-23T00:09:39;101665.69;;;18.76;60.06
69624;BME280;56843;52.020;5.670;2023-05-23T00:11:09;101672.31;;;18.79;60.00
69624;BME280;56843;52.020;5.670;2023-05-23T00:12:40;101675.03;;;18.79;59.63
69624;BME280;56843;52.020;5.670;2023-05-23T00:14:12;101675.34;;;18.77;59.67
69624;BME280;56843;52.020;5.670;2023-05-23T00:15:44;101681.19;;;18.79;59.77
69624;BME280;56843;52.020;5.670;2023-05-23T00:17:15;101677.28;;;18.77;59.97
69624;BME280;56843;52.020;5.670;2023-05-23T00:18:46;101682.69;;;18.77;60.02
69624;BME280;56843;52.020;5.670;2023-05-23T00:20:17;101684.63;;;18.76;60.22
69624;BME280;56843;52.020;5.670;2023-05-23T00:21:48;101679.97;;;18.77;59.76
69624;BME280;56843;52.020;5.670;2023-05-23T00:23:18;101679.66;;;18.78;60.13
69624;BME280;56843;52.020;5.670;2023-05-23T00:24:50;101667.53;;;18.72;59.88
69624;BME280;56843;52.020;5.670;2023-05-23T00:26:20;101687.34;;;18.76;60.33
69624;BME280;56843;52.020;5.670;2023-05-23T00:27:51;101680.78;;;18.77;60.20
69624;BME280;56843;52.020;5.670;2023-05-23T00:29:21;101675.72;;;18.76;59.88
69624;BME280;56843;52.020;5.670;2023-05-23T00:30:52;101688.47;;;18.75;59.92
69624;BME280;56843;52.020;5.670;2023-05-23T00:32:22;101690.75;;;18.73;60.44
69624;BME280;56843;52.020;5.670;2023-05-23T00:33:53;101686.47;;;18.72;60.34
69624;BME280;56843;52.020;5.670;2023-05-23T00:35:24;101681.84;;;18.73;60.55
69624;BME280;56843;52.020;5.670;2023-05-23T00:36:54;101686.13;;;18.74;60.18
69624;BME280;56843;52.020;5.670;2023-05-23T00:38:26;101686.13;;;18.74;60.29
69624;BME280;56843;52.020;5.670;2023-05-23T00:39:58;101698.06;;;18.73;60.33
69624;BME280;56843;52.020;5.670;2023-05-23T00:41:28;101688.41;;;18.72;60.58
69624;BME280;56843;52.020;5.670;2023-05-23T00:43:01;101694.06;;;18.67;60.42
69624;BME280;56843;52.020;5.670;2023-05-23T00:44:32;101690.06;;;18.61;60.71
69624;BME280;56843;52.020;5.670;2023-05-23T00:46:03;101697.94;;;18.50;61.15
69624;BME280;56843;52.020;5.670;2023-05-23T00:47:33;101702.88;;;18.45;61.36
69624;BME280;56843;52.020;5.670;2023-05-23T00:49:04;101691.97;;;18.41;61.25
69624;BME280;56843;52.020;5.670;2023-05-23T00:50:34;101702.72;;;18.38;61.65
69624;BME280;56843;52.020;5.670;2023-05-23T00:52:05;101704.19;;;18.35;61.63
69624;BME280;56843;52.020;5.670;2023-05-23T00:53:36;101701.84;;;18.33;61.61
69624;BME280;56843;52.020;5.670;2023-05-23T00:55:07;101711.09;;;18.32;61.52
69624;BME280;56843;52.020;5.670;2023-05-23T00:56:38;101700.56;;;18.27;61.59
69624;BME280;56843;52.020;5.670;2023-05-23T00:58:09;101711.09;;;18.32;61.77
69624;BME280;56843;52.020;5.670;2023-05-23T00:59:40;101706.81;;;18.31;62.11
69624;BME280;56843;52.020;5.670;2023-05-23T01:03:42;101713.22;;;18.23;61.99
69624;BME280;56843;52.020;5.670;2023-05-23T01:05:15;101700.81;;;18.22;62.05
69624;BME280;56843;52.020;5.670;2023-05-23T01:06:46;101712.44;;;18.23;62.33
69624;BME280;56843;52.020;5.670;2023-05-23T01:08:18;101709.72;;;18.23;62.42
69624;BME280;56843;52.020;5.670;2023-05-23T01:09:48;101701.94;;;18.21;62.44
69624;BME280;56843;52.020;5.670;2023-05-23T01:11:28;101701.53;;;18.19;62.44
69624;BME280;56843;52.020;5.670;2023-05-23T01:13:46;101706.16;;;18.19;62.22
69624;BME280;56843;52.020;5.670;2023-05-23T01:15:22;101709.75;;;18.07;62.77
69624;BME280;56843;52.020;5.670;2023-05-23T01:17:02;101703.56;;;18.07;62.36
69624;BME280;56843;52.020;5.670;2023-05-23T01:18:55;101709.03;;;18.10;62.32
69624;BME280;56843;52.020;5.670;2023-05-23T01:20:34;101716.28;;;18.06;62.39
69624;BME280;56843;52.020;5.670;2023-05-23T01:22:32;101713.25;;;18.08;62.44
69624;BME280;56843;52.020;5.670;2023-05-23T01:27:54;101708.09;;;18.03;62.45
69624;BME280;56843;52.020;5.670;2023-05-23T01:29:31;101702.94;;;17.98;62.53
69624;BME280;56843;52.020;5.670;2023-05-23T01:31:05;101710.69;;;17.99;62.45
69624;BME280;56843;52.020;5.670;2023-05-23T01:32:38;101705.66;;;17.98;62.68
69624;BME280;56843;52.020;5.670;2023-05-23T01:34:09;101704.53;;;17.99;62.52
69624;BME280;56843;52.020;5.670;2023-05-23T01:35:42;101702.94;;;17.98;62.53
69624;BME280;56843;52.020;5.670;2023-05-23T01:37:13;101698.34;;;17.98;62.11
69624;BME280;56843;52.020;5.670;2023-05-23T01:38:48;101696.00;;;17.97;62.78
69624;BME280;56843;52.020;5.670;2023-05-23T01:40:19;101708.34;;;17.98;62.59
69624;BME280;56843;52.020;5.670;2023-05-23T01:41:52;101709.16;;;17.98;62.60
69624;BME280;56843;52.020;5.670;2023-05-23T01:43:23;101708.34;;;17.98;62.70
69624;BME280;56843;52.020;5.670;2023-05-23T01:44:56;101707.56;;;17.97;62.43
69624;BME280;56843;52.020;5.670;2023-05-23T01:46:29;101704.53;;;17.99;62.33
69624;BME280;56843;52.020;5.670;2023-05-23T01:48:02;101709.16;;;17.98;62.55
69624;BME280;56843;52.020;5.670;2023-05-23T01:49:34;101699.47;;;17.97;62.45
69624;BME280;56843;52.020;5.670;2023-05-23T01:51:06;101711.84;;;17.98;62.49
69624;BME280;56843;52.020;5.670;2023-05-23T01:52:38;101704.88;;;17.97;62.40
69624;BME280;56843;52.020;5.670;2023-05-23T01:54:09;101709.50;;;17.97;62.74
69624;BME280;56843;52.020;5.670;2023-05-23T01:55:40;101704.88;;;17.97;62.56
69624;BME280;56843;52.020;5.670;2023-05-23T01:57:12;101709.84;;;17.95;62.54
69624;BME280;56843;52.020;5.670;2023-05-23T01:58:43;101711.00;;;17.94;62.57
69624;BME280;56843;52.020;5.670;2023-05-23T02:00:14;101714.47;;;17.95;62.71
69624;BME280;56843;52.020;5.670;2023-05-23T02:01:44;101717.50;;;17.93;62.59
69624;BME280;56843;52.020;5.670;2023-05-23T02:03:17;101717.94;;;17.95;62.68
69624;BME280;56843;52.020;5.670;2023-05-23T02:04:50;101722.22;;;17.96;62.58
69624;BME280;56843;52.020;5.670;2023-05-23T02:06:23;101728.00;;;17.95;62.48
69624;BME280;56843;52.020;5.670;2023-05-23T02:07:53;101724.13;;;17.96;62.55
69624;BME280;56843;52.020;5.670;2023-05-23T02:09:24;101728.31;;;17.93;62.56
69624;BME280;56843;52.020;5.670;2023-05-23T02:10:54;101729.91;;;17.94;62.35
69624;BME280;56843;52.020;5.670;2023-05-23T02:12:25;101728.69;;;17.92;62.50
69624;BME280;56843;52.020;5.670;2023-05-23T02:13:55;101732.19;;;17.92;62.29
69624;BME280;56843;52.020;5.670;2023-05-23T02:15:26;101722.13;;;17.93;62.41
69624;BME280;56843;52.020;5.670;2023-05-23T02:16:56;101732.19;;;17.92;62.50
69624;BME280;56843;52.020;5.670;2023-05-23T02:18:27;101723.28;;;17.92;62.45
69624;BME280;56843;52.020;5.670;2023-05-23T02:19:59;101729.47;;;17.92;62.58
69624;BME280;56843;52.020;5.670;2023-05-23T02:21:29;101733.28;;;17.91;62.57
69624;BME280;56843;52.020;5.670;2023-05-23T02:23:00;101739.06;;;17.90;63.02
69624;BME280;56843;52.020;5.670;2023-05-23T02:24:31;101732.88;;;17.89;62.83
69624;BME280;56843;52.020;5.670;2023-05-23T02:26:01;101735.50;;;17.86;62.55
69624;BME280;56843;52.020;5.670;2023-05-23T02:27:32;101740.97;;;17.89;62.68
69624;BME280;56843;52.020;5.670;2023-05-23T02:29:03;101738.63;;;17.88;62.81
69624;BME280;56843;52.020;5.670;2023-05-23T02:30:33;101745.59;;;17.89;62.76
69624;BME280;56843;52.020;5.670;2023-05-23T02:32:04;101744.47;;;17.90;62.75
69624;BME280;56843;52.020;5.670;2023-05-23T02:33:34;101744.09;;;17.91;62.90
69624;BME280;56843;52.020;5.670;2023-05-23T02:35:05;101743.75;;;17.93;62.84
69624;BME280;56843;52.020;5.670;2023-05-23T02:36:35;101751.78;;;17.89;62.63
69624;BME280;56843;52.020;5.670;2023-05-23T02:38:06;101741.31;;;17.88;62.51
69624;BME280;56843;52.020;5.670;2023-05-23T02:39:37;101740.53;;;17.87;62.86
69624;BME280;56843;52.020;5.670;2023-05-23T02:41:07;101740.91;;;17.86;62.99
69624;BME280;56843;52.020;5.670;2023-05-23T02:42:38;101751.34;;;17.87;62.82
69624;BME280;56843;52.020;5.670;2023-05-23T02:44:08;101756.31;;;17.85;62.96
69624;BME280;56843;52.020;5.670;2023-05-23T02:45:39;101755.53;;;17.85;62.96
69624;BME280;56843;52.020;5.670;2023-05-23T02:47:09;101754.41;;;17.86;62.59
69624;BME280;56843;52.020;5.670;2023-05-23T02:48:40;101755.53;;;17.85;62.82
69624;BME280;56843;52.020;5.670;2023-05-23T02:50:10;101748.22;;;17.85;62.91
69624;BME280;56843;52.020;5.670;2023-05-23T02:51:41;101757.88;;;17.86;62.72
69624;BME280;56843;52.020;5.670;2023-05-23T02:53:12;101756.31;;;17.85;63.03
69624;BME280;56843;52.020;5.670;2023-05-23T02:54:42;101757.41;;;17.84;63.01
69624;BME280;56843;52.020;5.670;2023-05-23T02:56:13;101755.53;;;17.85;62.69
69624;BME280;56843;52.020;5.670;2023-05-23T02:57:45;101750.13;;;17.85;62.75
69624;BME280;56843;52.020;5.670;2023-05-23T02:59:15;101761.72;;;17.85;62.56
69624;BME280;56843;52.020;5.670;2023-05-23T03:00:47;101752.00;;;17.84;62.72
69624;BME280;56843;52.020;5.670;2023-05-23T03:02:17;101763.16;;;17.83;62.82
69624;BME280;56843;52.020;5.670;2023-05-23T03:03:48;101756.97;;;17.82;62.62
69624;BME280;56843;52.020;5.670;2023-05-23T03:05:19;101754.28;;;17.82;62.63
69624;BME280;56843;52.020;5.670;2023-05-23T03:06:49;101758.56;;;17.83;62.58
69624;BME280;56843;52.020;5.670;2023-05-23T03:08:24;101750.00;;;17.81;62.15
69624;BME280;56843;52.020;5.670;2023-05-23T03:09:55;101760.81;;;17.81;62.36
69624;BME280;56843;52.020;5.670;2023-05-23T03:11:25;101752.72;;;17.81;62.68
69624;BME280;56843;52.020;5.670;2023-05-23T03:12:56;101759.25;;;17.80;62.58
69624;BME280;56843;52.020;5.670;2023-05-23T03:14:26;101756.91;;;17.79;62.53
69624;BME280;56843;52.020;5.670;2023-05-23T03:15:57;101752.28;;;17.79;62.10
69624;BME280;56843;52.020;5.670;2023-05-23T03:17:28;101758.81;;;17.78;62.21
69624;BME280;56843;52.020;5.670;2023-05-23T03:19:00;101750.69;;;17.78;62.26
69624;BME280;56843;52.020;5.670;2023-05-23T03:20:31;101751.94;;;17.81;62.06
69624;BME280;56843;52.020;5.670;2023-05-23T03:22:01;101758.13;;;17.81;62.36
69624;BME280;56843;52.020;5.670;2023-05-23T03:23:32;101758.56;;;17.83;62.15
69624;BME280;56843;52.020;5.670;2023-05-23T03:25:02;101752.34;;;17.83;61.92
69624;BME280;56843;52.020;5.670;2023-05-23T03:26:33;101757.31;;;17.81;62.16
69624;BME280;56843;52.020;5.670;2023-05-23T03:28:04;101753.94;;;17.84;61.88
69624;BME280;56843;52.020;5.670;2023-05-23T03:29:34;101755.84;;;17.83;61.92
69624;BME280;56843;52.020;5.670;2023-05-23T03:31:06;101758.13;;;17.81;62.11
69624;BME280;56843;52.020;5.670;2023-05-23T03:32:36;101764.28;;;17.82;61.95
69624;BME280;56843;52.020;5.670;2023-05-23T03:34:07;101758.88;;;17.82;61.92
69624;BME280;56843;52.020;5.670;2023-05-23T03:35:38;101756.19;;;17.82;61.70
69624;BME280;56843;52.020;5.670;2023-05-23T03:37:08;101765.88;;;17.83;61.92
69624;BME280;56843;52.020;5.670;2023-05-23T03:38:39;101760.09;;;17.84;62.00
69624;BME280;56843;52.020;5.670;2023-05-23T03:40:09;101758.13;;;17.81;61.57
69624;BME280;56843;52.020;5.670;2023-05-23T03:41:40;101763.97;;;17.83;61.63
69624;BME280;56843;52.020;5.670;2023-05-23T03:43:10;101761.25;;;17.83;61.88
69624;BME280;56843;52.020;5.670;2023-05-23T03:44:43;101765.06;;;17.82;62.00
69624;BME280;56843;52.020;5.670;2023-05-23T03:46:15;101762.38;;;17.82;61.71
69624;BME280;56843;52.020;5.670;2023-05-23T03:47:45;101768.56;;;17.83;61.71
69624;BME280;56843;52.020;5.670;2023-05-23T03:49:16;101758.13;;;17.81;61.87
69624;BME280;56843;52.020;5.670;2023-05-23T03:50:46;101768.56;;;17.83;61.55
69624;BME280;56843;52.020;5.670;2023-05-23T03:52:17;101761.94;;;17.80;61.61
69624;BME280;56843;52.020;5.670;2023-05-23T03:53:48;101771.63;;;17.81;61.79
69624;BME280;56843;52.020;5.670;2023-05-23T03:55:23;101774.44;;;17.85;62.00
69624;BME280;56843;52.020;5.670;2023-05-23T03:56:54;101772.41;;;17.82;61.74
69624;BME280;56843;52.020;5.670;2023-05-23T03:58:25;101764.28;;;17.82;61.73
69624;BME280;56843;52.020;5.670;2023-05-23T03:59:59;101786.38;;;17.84;61.56
69624;BME280;56843;52.020;5.670;2023-05-23T04:01:30;101783.34;;;17.85;61.54
69624;BME280;56843;52.020;5.670;2023-05-23T04:03:00;101783.34;;;17.85;61.52
69624;BME280;56843;52.020;5.670;2023-05-23T04:04:32;101781.72;;;17.84;61.58
69624;BME280;56843;52.020;5.670;2023-05-23T04:06:03;101789.53;;;17.86;61.82
69624;BME280;56843;52.020;5.670;2023-05-23T04:07:34;101790.97;;;17.83;61.83
69624;BME280;56843;52.020;5.670;2023-05-23T04:09:05;101787.13;;;17.84;61.69
69624;BME280;56843;52.020;5.670;2023-05-23T04:10:39;101792.53;;;17.84;61.77
69624;BME280;56843;52.020;5.670;2023-05-23T04:12:11;101791.78;;;17.84;61.74
69624;BME280;56843;52.020;5.670;2023-05-23T04:13:42;101797.19;;;17.84;61.75
69624;BME280;56843;52.020;5.670;2023-05-23T04:15:13;101808.75;;;17.84;61.82
69624;BME280;56843;52.020;5.670;2023-05-23T04:16:54;101799.41;;;17.82;61.57
69624;BME280;56843;52.020;5.670;2023-05-23T04:18:26;101802.47;;;17.80;61.71
69624;BME280;56843;52.020;5.670;2023-05-23T04:19:57;101803.94;;;17.78;61.65
69624;BME280;56843;52.020;5.670;2023-05-23T04:21:28;101800.81;;;17.76;61.72
69624;BME280;56843;52.020;5.670;2023-05-23T04:23:07;101803.00;;;17.70;61.85
69624;BME280;56843;52.020;5.670;2023-05-23T04:24:41;101805.25;;;17.68;61.91
69624;BME280;56843;52.020;5.670;2023-05-23T04:26:13;101808.28;;;17.67;61.86
69624;BME280;56843;52.020;5.670;2023-05-23T04:27:49;101805.16;;;17.64;61.62
69624;BME280;56843;52.020;5.670;2023-05-23T04:29:19;101807.16;;;17.68;61.69
69624;BME280;56843;52.020;5.670;2023-05-23T04:30:50;101811.78;;;17.67;61.85
69624;BME280;56843;52.020;5.670;2023-05-23T04:32:24;101815.88;;;17.61;61.60
69624;BME280;56843;52.020;5.670;2023-05-23T04:33:54;101822.91;;;17.50;62.08
69624;BME280;56843;52.020;5.670;2023-05-23T04:35:25;101809.44;;;17.38;62.15
69624;BME280;56843;52.020;5.670;2023-05-23T04:37:00;101817.91;;;17.24;62.61
69624;BME280;56843;52.020;5.670;2023-05-23T04:38:35;101815.63;;;17.11;63.00
69624;BME280;56843;52.020;5.670;2023-05-23T04:40:08;101813.38;;;17.01;63.42
69624;BME280;56843;52.020;5.670;2023-05-23T04:41:46;101816.09;;;16.88;63.42
69624;BME280;56843;52.020;5.670;2023-05-23T04:43:37;101819.59;;;16.77;63.78
69624;BME280;56843;52.020;5.670;2023-05-23T04:45:29;101823.06;;;16.65;64.06
69624;BME280;56843;52.020;5.670;2023-05-23T04:47:06;101822.06;;;16.58;64.01
69624;BME280;56843;52.020;5.670;2023-05-23T04:48:55;101826.44;;;16.50;64.15
69624;BME280;56843;52.020;5.670;2023-05-23T04:50:28;101829.81;;;16.47;64.11
69624;BME280;56843;52.020;5.670;2023-05-23T04:52:02;101826.22;;;16.43;64.38
69624;BME280;56843;52.020;5.670;2023-05-23T04:53:34;101824.19;;;16.40;64.28
69624;BME280;56843;52.020;5.670;2023-05-23T04:55:07;101834.53;;;16.38;64.42
69624;BME280;56843;52.020;5.670;2023-05-23T04:56:39;101831.81;;;16.38;64.40
69624;BME280;56843;52.020;5.670;2023-05-23T04:58:18;101837.09;;;16.47;63.73
69624;BME280;56843;52.020;5.670;2023-05-23T04:59:49;101838.34;;;16.49;63.41
69624;BME280;56843;52.020;5.670;2023-05-23T05:01:21;101839.72;;;16.55;63.24
69624;BME280;56843;52.020;5.670;2023-05-23T05:02:53;101839.03;;;16.58;62.90
69624;BME280;56843;52.020;5.670;2023-05-23T05:04:25;101844.06;;;16.60;62.55
69624;BME280;56843;52.020;5.670;2023-05-23T05:05:55;101856.09;;;16.62;62.35
69624;BME280;56843;52.020;5.670;2023-05-23T05:07:26;101848.00;;;16.62;62.58
69624;BME280;56843;52.020;5.670;2023-05-23T05:08:58;101850.72;;;16.62;62.15
69624;BME280;56843;52.020;5.670;2023-05-23T05:10:29;101854.19;;;16.63;62.14
69624;BME280;56843;52.020;5.670;2023-05-23T05:12:01;101854.53;;;16.61;62.26
69624;BME280;56843;52.020;5.670;2023-05-23T05:13:32;101859.94;;;16.61;61.88
69624;BME280;56843;52.020;5.670;2023-05-23T05:15:03;101857.25;;;16.61;62.03
69624;BME280;56843;52.020;5.670;2023-05-23T05:16:35;101861.03;;;16.60;62.03
69624;BME280;56843;52.020;5.670;2023-05-23T05:18:10;101866.88;;;16.62;61.64
69624;BME280;56843;52.020;5.670;2023-05-23T05:19:44;101873.75;;;16.60;61.67
69624;BME280;56843;52.020;5.670;2023-05-23T05:21:15;101873.28;;;16.58;61.47
69624;BME280;56843;52.020;5.670;2023-05-23T05:22:45;101865.19;;;16.58;61.56
69624;BME280;56843;52.020;5.670;2023-05-23T05:24:16;101875.44;;;16.64;61.62
69624;BME280;56843;52.020;5.670;2023-05-23T05:25:50;101879.59;;;16.74;61.81
69624;BME280;56843;52.020;5.670;2023-05-23T05:27:20;101881.16;;;16.87;61.52
69624;BME280;56843;52.020;5.670;2023-05-23T05:28:51;101885.13;;;17.02;61.21
69624;BME280;56843;52.020;5.670;2023-05-23T05:30:22;101885.78;;;17.11;60.93
69624;BME280;56843;52.020;5.670;2023-05-23T05:32:01;101884.38;;;17.29;60.92
69624;BME280;56843;52.020;5.670;2023-05-23T05:33:32;101878.63;;;17.42;60.39
69624;BME280;56843;52.020;5.670;2023-05-23T05:35:15;101884.75;;;17.55;60.09
69624;BME280;56843;52.020;5.670;2023-05-23T05:36:47;101887.78;;;17.66;60.13
69624;BME280;56843;52.020;5.670;2023-05-23T05:38:19;101901.22;;;17.78;60.07
69624;BME280;56843;52.020;5.670;2023-05-23T05:39:50;101896.13;;;17.88;59.60
69624;BME280;56843;52.020;5.670;2023-05-23T05:41:20;101901.06;;;17.98;59.40
69624;BME280;56843;52.020;5.670;2023-05-23T05:42:54;101909.00;;;18.07;59.11
69624;BME280;56843;52.020;5.670;2023-05-23T05:44:26;101895.75;;;18.17;58.95
69624;BME280;56843;52.020;5.670;2023-05-23T05:45:56;101893.25;;;18.24;58.65
69624;BME280;56843;52.020;5.670;2023-05-23T05:47:27;101901.19;;;18.33;58.82
69624;BME280;56843;52.020;5.670;2023-05-23T05:48:58;101909.47;;;18.40;58.70
69624;BME280;56843;52.020;5.670;2023-05-23T05:50:28;101904.25;;;18.47;58.27
69624;BME280;56843;52.020;5.670;2023-05-23T05:51:59;101908.25;;;18.53;58.50
69624;BME280;56843;52.020;5.670;2023-05-23T05:53:29;101909.22;;;18.61;58.52
69624;BME280;56843;52.020;5.670;2023-05-23T05:55:00;101910.09;;;18.65;57.99
69624;BME280;56843;52.020;5.670;2023-05-23T05:56:30;101913.66;;;18.69;58.07
69624;BME280;56843;52.020;5.670;2023-05-23T05:58:01;101913.44;;;18.74;57.74
69624;BME280;56843;52.020;5.670;2023-05-23T05:59:38;101923.28;;;18.82;57.90
69624;BME280;56843;52.020;5.670;2023-05-23T06:01:09;101924.94;;;18.86;57.96
69624;BME280;56843;52.020;5.670;2023-05-23T06:02:42;101918.91;;;18.93;57.67
69624;BME280;56843;52.020;5.670;2023-05-23T06:04:13;101930.59;;;18.97;57.99
69624;BME280;56843;52.020;5.670;2023-05-23T06:05:44;101926.06;;;19.01;57.26
69624;BME280;56843;52.020;5.670;2023-05-23T06:07:15;101937.41;;;19.06;57.10
69624;BME280;56843;52.020;5.670;2023-05-23T06:08:45;101930.16;;;19.11;56.99
69624;BME280;56843;52.020;5.670;2023-05-23T06:10:19;101938.69;;;19.13;56.69
69624;BME280;56843;52.020;5.670;2023-05-23T06:11:50;101934.13;;;19.17;57.29
69624;BME280;56843;52.020;5.670;2023-05-23T06:13:21;101929.94;;;19.19;56.95
69624;BME280;56843;52.020;5.670;2023-05-23T06:14:56;101932.75;;;19.23;56.84
69624;BME280;56843;52.020;5.670;2023-05-23T06:16:26;101936.69;;;19.25;56.73
69624;BME280;56843;52.020;5.670;2023-05-23T06:17:57;101948.69;;;19.28;56.63
69624;BME280;56843;52.020;5.670;2023-05-23T06:19:28;101942.97;;;19.29;56.37
69624;BME280;56843;52.020;5.670;2023-05-23T06:20:59;101938.41;;;19.33;56.45
69624;BME280;56843;52.020;5.670;2023-05-23T06:22:30;101939.63;;;19.36;56.00
69624;BME280;56843;52.020;5.670;2023-05-23T06:24:01;101950.50;;;19.39;55.77
69624;BME280;56843;52.020;5.670;2023-05-23T06:25:31;101942.06;;;19.41;56.15
69624;BME280;56843;52.020;5.670;2023-05-23T06:27:02;101946.75;;;19.44;55.70
69624;BME280;56843;52.020;5.670;2023-05-23T06:28:32;101952.69;;;19.49;55.41
69624;BME280;56843;52.020;5.670;2023-05-23T06:30:06;101945.06;;;19.55;55.63
69624;BME280;56843;52.020;5.670;2023-05-23T06:31:37;101944.44;;;19.61;55.38
69624;BME280;56843;52.020;5.670;2023-05-23T06:33:09;101943.88;;;19.71;54.83
69624;BME280;56843;52.020;5.670;2023-05-23T06:34:40;101937.81;;;19.78;54.92
69624;BME280;56843;52.020;5.670;2023-05-23T06:36:11;101942.59;;;19.85;54.44
69624;BME280;56843;52.020;5.670;2023-05-23T06:37:41;101939.94;;;19.88;54.24
69624;BME280;56843;52.020;5.670;2023-05-23T06:39:14;101943.88;;;19.91;54.29
69624;BME280;56843;52.020;5.670;2023-05-23T06:40:45;101942.81;;;19.95;54.11
69624;BME280;56843;52.020;5.670;2023-05-23T06:42:17;101941.66;;;19.96;54.39
69624;BME280;56843;52.020;5.670;2023-05-23T06:44:00;101954.88;;;19.98;54.10
69624;BME280;56843;52.020;5.670;2023-05-23T06:45:33;101944.44;;;20.00;54.46
69624;BME280;56843;52.020;5.670;2023-05-23T06:47:05;101951.88;;;20.03;54.17
69624;BME280;56843;52.020;5.670;2023-05-23T06:48:35;101954.22;;;20.04;53.67
69624;BME280;56843;52.020;5.670;2023-05-23T06:50:06;101956.56;;;20.06;53.64
69624;BME280;56843;52.020;5.670;2023-05-23T06:51:37;101955.06;;;20.08;53.58
69624;BME280;56843;52.020;5.670;2023-05-23T06:53:08;101949.69;;;20.12;53.53
69624;BME280;56843;52.020;5.670;2023-05-23T06:54:39;101957.97;;;20.19;53.54
69624;BME280;56843;52.020;5.670;2023-05-23T06:56:09;101960.38;;;20.24;53.14
69624;BME280;56843;52.020;5.670;2023-05-23T06:57:53;101965.81;;;20.24;52.76
69624;BME280;56843;52.020;5.670;2023-05-23T06:59:25;101977.09;;;20.26;52.75
69624;BME280;56843;52.020;5.670;2023-05-23T07:00:56;101970.53;;;20.27;53.15
69624;BME280;56843;52.020;5.670;2023-05-23T07:02:35;101979.81;;;20.26;52.76
69624;BME280;56843;52.020;5.670;2023-05-23T07:04:08;101977.09;;;20.26;53.05
69624;BME280;56843;52.020;5.670;2023-05-23T07:05:39;101971.66;;;20.26;52.72
69624;BME280;56843;52.020;5.670;2023-05-23T07:07:09;101978.69;;;20.27;52.71
69624;BME280;56843;52.020;5.670;2023-05-23T07:08:40;101982.50;;;20.26;52.63
69624;BME280;56843;52.020;5.670;2023-05-23T07:10:10;101974.75;;;20.24;52.87
69624;BME280;56843;52.020;5.670;2023-05-23T07:11:41;101982.88;;;20.24;52.61
69624;BME280;56843;52.020;5.670;2023-05-23T07:13:12;101972.81;;;20.25;52.88
69624;BME280;56843;52.020;5.670;2023-05-23T07:14:43;101979.81;;;20.26;52.73
69624;BME280;56843;52.020;5.670;2023-05-23T07:16:14;101980.97;;;20.25;52.35
69624;BME280;56843;52.020;5.670;2023-05-23T07:17:56;101980.97;;;20.25;52.49
69624;BME280;56843;52.020;5.670;2023-05-23T07:19:26;101980.19;;;20.24;52.68
69624;BME280;56843;52.020;5.670;2023-05-23T07:20:57;101977.03;;;20.22;52.70
69624;BME280;56843;52.020;5.670;2023-05-23T07:22:27;101980.88;;;20.21;52.63
69624;BME280;56843;52.020;5.670;2023-05-23T07:24:01;101986.31;;;20.21;52.34
69624;BME280;56843;52.020;5.670;2023-05-23T07:25:32;101990.94;;;20.21;52.67
69624;BME280;56843;52.020;5.670;2023-05-23T07:27:03;101982.03;;;20.20;52.55
69624;BME280;56843;52.020;5.670;2023-05-23T07:28:34;101989.38;;;20.20;52.60
69624;BME280;56843;52.020;5.670;2023-05-23T07:30:05;101987.81;;;20.19;52.37
69624;BME280;56843;52.020;5.670;2023-05-23T07:31:36;101991.69;;;20.18;52.29
69624;BME280;56843;52.020;5.670;2023-05-23T07:33:07;101990.09;;;20.17;52.65
69624;BME280;56843;52.020;5.670;2023-05-23T07:34:38;102003.66;;;20.17;52.49
69624;BME280;56843;52.020;5.670;2023-05-23T07:36:09;101996.31;;;20.17;52.58
69624;BME280;56843;52.020;5.670;2023-05-23T07:37:40;102002.88;;;20.16;52.40
69624;BME280;56843;52.020;5.670;2023-05-23T07:39:10;102008.28;;;20.16;52.30
69624;BME280;56843;52.020;5.670;2023-05-23T07:40:41;102006.38;;;20.17;52.17
69624;BME280;56843;52.020;5.670;2023-05-23T07:42:12;102003.66;;;20.17;52.54
69624;BME280;56843;52.020;5.670;2023-05-23T07:43:43;102009.06;;;20.17;52.62
69624;BME280;56843;52.020;5.670;2023-05-23T07:45:13;102019.94;;;20.17;52.30
69624;BME280;56843;52.020;5.670;2023-05-23T07:46:46;102012.16;;;20.15;52.61
69624;BME280;56843;52.020;5.670;2023-05-23T07:48:18;102019.13;;;20.16;52.54
69624;BME280;56843;52.020;5.670;2023-05-23T07:49:49;102008.28;;;20.16;52.46
69624;BME280;56843;52.020;5.670;2023-05-23T07:51:21;102012.94;;;20.16;52.21
69624;BME280;56843;52.020;5.670;2023-05-23T07:52:54;102023.81;;;20.16;52.29
69624;BME280;56843;52.020;5.670;2023-05-23T07:54:31;102006.66;;;20.12;52.11
69624;BME280;56843;52.020;5.670;2023-05-23T07:56:03;102016.78;;;20.15;52.18
69624;BME280;56843;52.020;5.670;2023-05-23T07:57:38;102012.53;;;20.14;52.27
69624;BME280;56843;52.020;5.670;2023-05-23T07:59:09;102013.28;;;20.14;52.42
69624;BME280;56843;52.020;5.670;2023-05-23T08:00:40;102012.94;;;20.16;52.03
69624;BME280;56843;52.020;5.670;2023-05-23T08:02:19;102006.00;;;20.18;51.84
69624;BME280;56843;52.020;5.670;2023-05-23T08:03:50;102016.16;;;20.21;51.88
69624;BME280;56843;52.020;5.670;2023-05-23T08:05:26;102013.94;;;20.27;51.80
69624;BME280;56843;52.020;5.670;2023-05-23T08:06:59;102014.88;;;20.34;51.58
69624;BME280;56843;52.020;5.670;2023-05-23T08:08:37;102011.09;;;20.39;51.76